createdAt,value
2019-02-15T00:00:57.798Z,102692.70
2019-02-15T00:03:27.138Z,102687.26
2019-02-15T00:05:56.652Z,102685.09
2019-02-15T00:08:25.971Z,102682.45
2019-02-15T00:10:55.363Z,102680.00
2019-02-15T00:13:24.751Z,102680.73
2019-02-15T00:15:54.163Z,102678.00
2019-02-15T00:18:30.575Z,102675.12
2019-02-15T00:21:17.576Z,102676.62
2019-02-15T00:23:46.939Z,102671.17
2019-02-15T00:26:16.763Z,102672.55
2019-02-15T00:28:46.427Z,102677.80
2019-02-15T00:31:18.584Z,102683.06
2019-02-15T00:33:47.878Z,102680.05
2019-02-15T00:36:17.243Z,102677.47
2019-02-15T00:38:46.526Z,102676.73
2019-02-15T00:41:15.819Z,102679.82
2019-02-15T00:43:45.063Z,102680.38
2019-02-15T00:46:45.241Z,102679.31
2019-02-15T00:49:21.599Z,102687.13
2019-02-15T00:52:13.151Z,102683.64
2019-02-15T00:55:07.158Z,102689.83
2019-02-15T00:57:58.392Z,102682.50
2019-02-15T01:00:45.380Z,102687.47
2019-02-15T01:03:32.489Z,102686.04
2019-02-15T01:06:09.738Z,102684.16
2019-02-15T01:08:59.680Z,102684.16
2019-02-15T01:11:37.562Z,102681.81
2019-02-15T01:14:07.006Z,102680.26
2019-02-15T01:16:36.434Z,102678.73
2019-02-15T01:19:05.710Z,102675.75
2019-02-15T01:21:36.837Z,102677.42
2019-02-15T01:24:06.772Z,102667.09
2019-02-15T01:26:44.293Z,102678.90
2019-02-15T01:29:35.363Z,102676.25
2019-02-15T01:32:27.952Z,102675.50
2019-02-15T01:35:09.441Z,102667.89
2019-02-15T01:38:08.461Z,102667.04
2019-02-15T01:40:55.247Z,102670.97
2019-02-15T01:43:58.533Z,102660.05
2019-02-15T01:46:43.639Z,102665.71
2019-02-15T01:49:13.529Z,102649.92
2019-02-15T01:51:42.965Z,102653.48
2019-02-15T01:54:12.306Z,102651.58
2019-02-15T01:56:41.672Z,102652.42
2019-02-15T01:59:11.198Z,102648.45
2019-02-15T02:01:40.645Z,102646.91
2019-02-15T02:04:10.250Z,102651.20
2019-02-15T02:06:39.603Z,102646.44
2019-02-15T02:09:09.104Z,102642.95
2019-02-15T02:11:38.798Z,102635.61
2019-02-15T02:14:08.238Z,102640.86
2019-02-15T02:16:37.644Z,102636.67
2019-02-15T02:19:06.983Z,102625.66
2019-02-15T02:21:37.013Z,102627.27
2019-02-15T02:24:06.269Z,102618.67
2019-02-15T02:26:35.597Z,102623.54
2019-02-15T02:29:04.958Z,102622.77
2019-02-15T02:31:34.228Z,102617.09
2019-02-15T02:34:03.480Z,102614.73
2019-02-15T02:36:54.579Z,102610.86
2019-02-15T02:39:24.108Z,102612.56
2019-02-15T02:41:53.541Z,102612.66
2019-02-15T02:44:22.937Z,102618.39
2019-02-15T02:46:52.291Z,102614.73
2019-02-15T02:49:21.695Z,102614.66
2019-02-15T02:51:50.987Z,102611.05
2019-02-15T02:54:20.350Z,102611.91
2019-02-15T02:56:49.715Z,102611.12
2019-02-15T02:59:18.944Z,102610.20
2019-02-15T03:01:48.334Z,102607.96
2019-02-15T03:04:18.035Z,102602.65
2019-02-15T03:06:47.513Z,102604.80
2019-02-15T03:09:16.880Z,102596.40
2019-02-15T03:11:46.177Z,102602.78
2019-02-15T03:14:15.491Z,102598.25
2019-02-15T03:16:44.934Z,102593.63
2019-02-15T03:19:14.340Z,102599.15
2019-02-15T03:21:43.638Z,102595.47
2019-02-15T03:24:13.019Z,102597.70
2019-02-15T03:26:42.797Z,102590.22
2019-02-15T03:29:12.046Z,102584.40
2019-02-15T03:31:41.462Z,102585.45
2019-02-15T03:34:10.856Z,102588.12
2019-02-15T03:37:04.239Z,102587.40
2019-02-15T03:39:39.603Z,102581.06
2019-02-15T03:42:11.069Z,102579.95
2019-02-15T03:44:40.481Z,102576.08
2019-02-15T03:47:09.862Z,102578.70
2019-02-15T03:49:39.129Z,102573.62
2019-02-15T03:52:08.413Z,102569.48
2019-02-15T03:54:37.933Z,102567.02
2019-02-15T03:57:07.511Z,102569.29
2019-02-15T03:59:37.095Z,102569.46
2019-02-15T04:02:06.439Z,102569.16
2019-02-15T04:04:35.891Z,102567.39
2019-02-15T04:07:05.424Z,102564.56
2019-02-15T04:09:34.907Z,102564.56
2019-02-15T04:12:04.315Z,102566.83
2019-02-15T04:14:33.669Z,102570.77
2019-02-15T04:17:02.998Z,102568.14
2019-02-15T04:19:32.292Z,102570.31
2019-02-15T04:22:02.120Z,102564.56
2019-02-15T04:24:31.404Z,102570.22
2019-02-15T04:27:00.962Z,102572.45
2019-02-15T04:29:30.230Z,102568.14
2019-02-15T04:31:59.593Z,102576.39
2019-02-15T04:34:28.992Z,102572.45
2019-02-15T04:36:58.346Z,102567.12
2019-02-15T04:39:27.595Z,102571.36
2019-02-15T04:41:56.969Z,102568.56
2019-02-15T04:44:26.391Z,102576.34
2019-02-15T04:46:55.735Z,102576.81
2019-02-15T04:49:25.143Z,102580.00
2019-02-15T04:51:54.588Z,102584.33
2019-02-15T04:54:24.044Z,102580.39
2019-02-15T04:56:53.416Z,102579.17
2019-02-15T04:59:23.114Z,102578.93
2019-02-15T05:01:52.561Z,102580.89
2019-02-15T05:04:22.307Z,102581.36
2019-02-15T05:06:51.621Z,102573.18
2019-02-15T05:09:21.060Z,102571.21
2019-02-15T05:11:51.176Z,102572.70
2019-02-15T05:14:20.430Z,102568.00
2019-02-15T05:16:49.967Z,102564.35
2019-02-15T05:19:19.333Z,102562.03
2019-02-15T05:21:48.692Z,102560.95
2019-02-15T05:24:18.080Z,102568.00
2019-02-15T05:26:47.499Z,102565.66
2019-02-15T05:29:16.881Z,102570.00
2019-02-15T05:31:46.231Z,102568.30
2019-02-15T05:34:15.560Z,102567.55
2019-02-15T05:36:44.956Z,102567.56
2019-02-15T05:39:14.295Z,102565.91
2019-02-15T05:41:43.702Z,102564.77
2019-02-15T05:44:13.122Z,102564.94
2019-02-15T05:46:42.430Z,102558.64
2019-02-15T05:49:11.884Z,102563.25
2019-02-15T05:51:41.205Z,102561.72
2019-02-15T05:54:10.814Z,102567.16
2019-02-15T05:56:40.096Z,102564.91
2019-02-15T05:59:09.890Z,102563.15
2019-02-15T06:01:39.639Z,102566.25
2019-02-15T06:04:09.346Z,102559.79
2019-02-15T06:06:38.719Z,102561.03
2019-02-15T06:09:08.225Z,102561.78
2019-02-15T06:11:37.612Z,102561.22
2019-02-15T06:14:06.974Z,102556.81
2019-02-15T06:16:36.510Z,102561.90
2019-02-15T06:19:05.942Z,102550.73
2019-02-15T06:21:35.325Z,102555.98
2019-02-15T06:24:04.860Z,102557.70
2019-02-15T06:26:34.173Z,102563.03
2019-02-15T06:29:03.540Z,102567.09
2019-02-15T06:31:32.935Z,102565.31
2019-02-15T06:34:02.253Z,102564.06
2019-02-15T06:36:35.732Z,102562.38
2019-02-15T06:39:07.493Z,102560.49
2019-02-15T06:41:36.792Z,102568.60
2019-02-15T06:44:06.155Z,102570.48
2019-02-15T06:46:35.585Z,102567.73
2019-02-15T06:49:04.944Z,102561.72
2019-02-15T06:51:34.306Z,102565.02
2019-02-15T06:54:03.674Z,102561.23
2019-02-15T06:56:33.055Z,102561.81
2019-02-15T06:59:17.304Z,102561.72
2019-02-15T07:01:54.854Z,102562.18
2019-02-15T07:04:37.539Z,102563.70
2019-02-15T07:07:06.841Z,102560.67
2019-02-15T07:09:36.165Z,102565.73
2019-02-15T07:12:05.499Z,102563.47
2019-02-15T07:14:34.872Z,102552.54
2019-02-15T07:17:04.307Z,102561.41
2019-02-15T07:19:34.458Z,102565.72
2019-02-15T07:22:03.759Z,102565.17
2019-02-15T07:24:33.125Z,102572.09
2019-02-15T07:27:04.567Z,102571.72
2019-02-15T07:29:34.254Z,102564.09
2019-02-15T07:32:03.575Z,102566.92
2019-02-15T07:34:32.890Z,102572.44
2019-02-15T07:37:02.264Z,102565.63
2019-02-15T07:39:31.534Z,102568.94
2019-02-15T07:42:00.949Z,102573.78
2019-02-15T07:44:30.441Z,102566.95
2019-02-15T07:46:59.793Z,102563.72
2019-02-15T07:49:29.127Z,102562.42
2019-02-15T07:51:58.435Z,102560.73
2019-02-15T07:54:27.858Z,102557.05
2019-02-15T07:56:57.128Z,102563.17
2019-02-15T07:59:26.484Z,102562.96
2019-02-15T08:02:01.663Z,102564.86
2019-02-15T08:04:26.773Z,102564.66
2019-02-15T08:06:56.000Z,102565.23
2019-02-15T08:09:32.782Z,102558.55
2019-02-15T08:12:02.003Z,102549.98
2019-02-15T08:14:31.198Z,102552.29
2019-02-15T08:17:00.431Z,102544.75
2019-02-15T08:19:31.793Z,102544.19
2019-02-15T08:22:01.005Z,102542.09
2019-02-15T08:24:30.250Z,102544.90
2019-02-15T08:26:59.467Z,102542.19
2019-02-15T08:29:28.794Z,102535.98
2019-02-15T08:31:58.002Z,102534.44
2019-02-15T08:34:27.345Z,102539.41
2019-02-15T08:36:56.486Z,102536.80
2019-02-15T08:39:25.826Z,102539.00
2019-02-15T08:42:01.228Z,102540.21
2019-02-15T08:44:26.196Z,102536.75
2019-02-15T08:46:55.682Z,102525.55
2019-02-15T08:49:43.997Z,102530.02
2019-02-15T08:52:13.299Z,102531.23
2019-02-15T08:54:42.550Z,102531.82
2019-02-15T08:57:11.793Z,102526.90
2019-02-15T08:59:41.035Z,102527.00
2019-02-15T09:02:21.799Z,102525.16
2019-02-15T09:05:21.480Z,102531.41
2019-02-15T09:08:09.833Z,102533.72
2019-02-15T09:10:58.093Z,102532.11
2019-02-15T09:13:27.365Z,102529.19
2019-02-15T09:15:56.565Z,102527.80
2019-02-15T09:18:25.810Z,102520.31
2019-02-15T09:20:55.146Z,102523.41
2019-02-15T09:23:24.384Z,102519.73
2019-02-15T09:25:53.634Z,102525.01
2019-02-15T09:28:30.519Z,102528.95
2019-02-15T09:30:59.920Z,102529.11
2019-02-15T09:33:29.195Z,102527.65
2019-02-15T09:35:58.415Z,102521.53
2019-02-15T09:38:27.613Z,102517.38
2019-02-15T09:40:57.947Z,102523.95
2019-02-15T09:43:27.197Z,102523.95
2019-02-15T09:45:56.452Z,102519.74
2019-02-15T09:48:25.678Z,102518.00
2019-02-15T09:50:55.007Z,102517.22
2019-02-15T09:53:24.350Z,102517.80
2019-02-15T09:55:54.294Z,102517.67
2019-02-15T09:58:25.963Z,102519.38
2019-02-15T10:00:58.554Z,102513.70
2019-02-15T10:03:30.668Z,102509.59
2019-02-15T10:05:59.949Z,102511.20
2019-02-15T10:08:29.212Z,102498.46
2019-02-15T10:10:59.497Z,102504.70
2019-02-15T10:13:28.720Z,102507.83
2019-02-15T10:15:57.942Z,102505.45
2019-02-15T10:18:27.226Z,102496.55
2019-02-15T10:20:56.620Z,102499.50
2019-02-15T10:23:25.899Z,102504.80
2019-02-15T10:25:56.503Z,102500.22
2019-02-15T10:28:25.780Z,102499.81
2019-02-15T10:30:56.019Z,102503.38
2019-02-15T10:33:25.405Z,102506.77
2019-02-15T10:35:54.725Z,102505.97
2019-02-15T10:38:24.021Z,102502.70
2019-02-15T10:40:53.576Z,102499.33
2019-02-15T10:43:22.936Z,102494.25
2019-02-15T10:45:52.398Z,102496.38
2019-02-15T10:48:21.608Z,102494.16
2019-02-15T10:50:50.932Z,102493.60
2019-02-15T10:53:20.174Z,102493.45
2019-02-15T10:55:49.432Z,102489.44
2019-02-15T10:58:18.753Z,102483.72
2019-02-15T11:00:48.034Z,102481.52
2019-02-15T11:03:17.381Z,102480.58
2019-02-15T11:05:46.741Z,102469.54
2019-02-15T11:08:15.926Z,102470.45
2019-02-15T11:10:45.126Z,102471.13
2019-02-15T11:13:14.452Z,102470.20
2019-02-15T11:15:43.640Z,102471.13
2019-02-15T11:18:13.051Z,102464.48
2019-02-15T11:20:42.288Z,102468.40
2019-02-15T11:23:12.622Z,102455.38
2019-02-15T11:25:41.950Z,102457.06
2019-02-15T11:28:11.196Z,102454.73
2019-02-15T11:30:40.474Z,102447.09
2019-02-15T11:33:09.995Z,102438.27
2019-02-15T11:35:39.339Z,102439.66
2019-02-15T11:38:08.671Z,102439.84
2019-02-15T11:40:37.981Z,102434.45
2019-02-15T11:43:07.351Z,102428.45
2019-02-15T11:45:36.580Z,102426.73
2019-02-15T11:48:05.969Z,102424.01
2019-02-15T11:50:35.351Z,102423.73
2019-02-15T11:53:04.811Z,102414.59
2019-02-15T11:55:34.127Z,102411.41
2019-02-15T11:58:03.421Z,102412.69
2019-02-15T12:00:34.369Z,102410.27
2019-02-15T12:03:03.723Z,102413.27
2019-02-15T12:05:32.999Z,102403.16
2019-02-15T12:08:02.365Z,102397.09
2019-02-15T12:10:31.654Z,102396.83
2019-02-15T12:13:00.893Z,102391.73
2019-02-15T12:15:30.193Z,102393.65
2019-02-15T12:17:59.908Z,102393.25
2019-02-15T12:20:29.225Z,102385.62
2019-02-15T12:22:58.626Z,102380.19
2019-02-15T12:25:27.851Z,102384.20
2019-02-15T12:27:57.148Z,102380.17
2019-02-15T12:30:26.425Z,102380.67
2019-02-15T12:32:55.873Z,102373.04
2019-02-15T12:35:25.123Z,102362.98
2019-02-15T12:37:54.355Z,102363.13
2019-02-15T12:40:23.699Z,102363.38
2019-02-15T12:42:53.151Z,102359.30
2019-02-15T12:45:22.426Z,102357.28
2019-02-15T12:47:51.646Z,102353.54
2019-02-15T12:50:20.900Z,102343.09
2019-02-15T12:52:50.101Z,102339.38
2019-02-15T12:55:19.422Z,102341.67
2019-02-15T12:57:48.648Z,102338.06
2019-02-15T13:00:37.058Z,102327.30
2019-02-15T13:03:09.520Z,102324.11
2019-02-15T13:05:57.824Z,102321.91
2019-02-15T13:08:29.239Z,102316.16
2019-02-15T13:10:58.739Z,102312.16
2019-02-15T13:13:29.077Z,102312.80
2019-02-15T13:15:58.312Z,102311.06
2019-02-15T13:18:27.526Z,102305.34
2019-02-15T13:20:56.958Z,102304.83
2019-02-15T13:23:26.243Z,102300.79
2019-02-15T13:25:55.573Z,102290.26
2019-02-15T13:28:24.752Z,102293.06
2019-02-15T13:30:54.252Z,102288.80
2019-02-15T13:33:23.578Z,102291.44
2019-02-15T13:35:52.934Z,102283.10
2019-02-15T13:38:22.363Z,102280.17
2019-02-15T13:40:52.571Z,102276.02
2019-02-15T13:43:22.016Z,102274.78
2019-02-15T13:45:51.334Z,102268.27
2019-02-15T13:48:20.569Z,102263.66
2019-02-15T13:50:49.897Z,102261.08
2019-02-15T13:53:20.367Z,102255.27
2019-02-15T13:55:49.955Z,102247.52
2019-02-15T13:58:19.300Z,102247.36
2019-02-15T14:00:48.531Z,102237.92
2019-02-15T14:03:17.899Z,102243.83
2019-02-15T14:05:47.483Z,102238.61
2019-02-15T14:08:16.806Z,102231.70
2019-02-15T14:10:46.054Z,102215.73
2019-02-15T14:13:15.423Z,102207.77
2019-02-15T14:15:44.849Z,102199.70
2019-02-15T14:18:14.179Z,102197.41
2019-02-15T14:20:43.582Z,102195.14
2019-02-15T14:23:14.106Z,102193.04
2019-02-15T14:25:43.528Z,102192.63
2019-02-15T14:28:31.881Z,102186.48
2019-02-15T14:31:01.262Z,102184.62
2019-02-15T14:33:30.715Z,102178.05
2019-02-15T14:36:00.436Z,102178.42
2019-02-15T14:38:37.062Z,102168.66
2019-02-15T14:41:06.452Z,102166.95
2019-02-15T14:43:35.753Z,102159.73
2019-02-15T14:46:05.052Z,102152.97
2019-02-15T14:48:34.330Z,102153.38
2019-02-15T14:51:03.622Z,102156.79
2019-02-15T14:53:33.093Z,102152.25
2019-02-15T14:56:03.349Z,102149.33
2019-02-15T14:58:32.855Z,102146.72
2019-02-15T15:01:02.204Z,102147.75
2019-02-15T15:03:31.825Z,102140.62
2019-02-15T15:06:01.129Z,102138.55
2019-02-15T15:08:30.830Z,102137.49
2019-02-15T15:11:00.222Z,102134.59
2019-02-15T15:13:29.545Z,102128.84
2019-02-15T15:15:58.981Z,102128.57
2019-02-15T15:18:28.247Z,102124.11
2019-02-15T15:20:57.552Z,102117.78
2019-02-15T15:23:26.957Z,102121.69
2019-02-15T15:25:56.437Z,102122.16
2019-02-15T15:28:25.739Z,102117.16
2019-02-15T15:30:55.210Z,102117.16
2019-02-15T15:33:24.724Z,102116.39
2019-02-15T15:35:54.058Z,102111.67
2019-02-15T15:38:23.418Z,102114.18
2019-02-15T15:40:52.747Z,102112.64
2019-02-15T15:43:22.019Z,102115.41
2019-02-15T15:45:51.266Z,102111.56
2019-02-15T15:48:22.761Z,102110.61
2019-02-15T15:50:51.974Z,102110.65
2019-02-15T15:53:21.462Z,102106.80
2019-02-15T15:55:50.938Z,102110.62
2019-02-15T15:58:20.217Z,102110.37
2019-02-15T16:00:49.699Z,102108.00
2019-02-15T16:03:19.099Z,102105.88
2019-02-15T16:05:48.495Z,102109.91
2019-02-15T16:08:17.856Z,102101.81
2019-02-15T16:10:47.333Z,102099.78
2019-02-15T16:13:16.872Z,102103.41
2019-02-15T16:15:46.395Z,102097.88
2019-02-15T16:18:15.844Z,102101.00
2019-02-15T16:20:45.193Z,102110.14
2019-02-15T16:23:14.767Z,102098.57
2019-02-15T16:25:44.145Z,102104.73
2019-02-15T16:28:13.678Z,102102.86
2019-02-15T16:30:43.275Z,102107.09
2019-02-15T16:33:12.715Z,102101.99
2019-02-15T16:35:42.241Z,102101.83
2019-02-15T16:38:11.626Z,102112.83
2019-02-15T16:40:41.210Z,102107.45
2019-02-15T16:43:10.932Z,102108.73
2019-02-15T16:45:41.625Z,102107.63
2019-02-15T16:48:11.097Z,102108.68
2019-02-15T16:50:40.512Z,102102.82
2019-02-15T16:53:09.991Z,102102.11
2019-02-15T16:55:39.615Z,102103.42
2019-02-15T16:58:09.000Z,102108.66
2019-02-15T17:00:38.707Z,102111.89
2019-02-15T17:03:08.330Z,102103.83
2019-02-15T17:05:37.939Z,102104.93
2019-02-15T17:08:07.455Z,102101.19
2019-02-15T17:10:37.577Z,102101.78
2019-02-15T17:13:07.161Z,102103.84
2019-02-15T17:15:36.731Z,102104.78
2019-02-15T17:18:06.380Z,102103.00
2019-02-15T17:20:36.077Z,102109.58
2019-02-15T17:23:05.664Z,102104.47
2019-02-15T17:25:35.210Z,102099.91
2019-02-15T17:28:04.639Z,102100.20
2019-02-15T17:30:34.122Z,102099.98
2019-02-15T17:33:03.644Z,102088.21
2019-02-15T17:35:33.325Z,102097.73
2019-02-15T17:38:03.171Z,102094.30
2019-02-15T17:40:32.730Z,102091.80
2019-02-15T17:43:02.379Z,102088.95
2019-02-15T17:45:32.480Z,102086.64
2019-02-15T17:48:02.054Z,102085.12
2019-02-15T17:50:31.488Z,102082.13
2019-02-15T17:53:01.142Z,102079.83
2019-02-15T17:55:30.725Z,102076.94
2019-02-15T17:58:00.696Z,102079.41
2019-02-15T18:00:31.871Z,102076.77
2019-02-15T18:03:01.472Z,102080.18
2019-02-15T18:05:31.029Z,102075.23
2019-02-15T18:08:00.622Z,102078.91
2019-02-15T18:10:30.307Z,102078.29
2019-02-15T18:13:00.318Z,102078.48
2019-02-15T18:15:29.881Z,102077.83
2019-02-15T18:17:59.477Z,102077.53
2019-02-15T18:20:29.124Z,102073.86
2019-02-15T18:22:58.754Z,102068.53
2019-02-15T18:25:28.472Z,102067.30
2019-02-15T18:27:57.963Z,102064.78
2019-02-15T18:30:27.613Z,102064.04
2019-02-15T18:32:57.276Z,102060.15
2019-02-15T18:35:26.940Z,102064.77
2019-02-15T18:37:56.595Z,102056.87
2019-02-15T18:40:26.201Z,102058.47
2019-02-15T18:42:55.857Z,102054.41
2019-02-15T18:45:25.493Z,102049.74
2019-02-15T18:47:55.204Z,102044.39
2019-02-15T18:50:24.821Z,102044.32
2019-02-15T18:52:54.531Z,102043.15
2019-02-15T18:55:24.149Z,102049.90
2019-02-15T18:57:53.911Z,102049.11
2019-02-15T19:00:23.498Z,102045.19
2019-02-15T19:02:53.357Z,102045.75
2019-02-15T19:05:23.092Z,102042.95
2019-02-15T19:07:52.913Z,102035.10
2019-02-15T19:10:22.649Z,102035.46
2019-02-15T19:12:52.287Z,102034.91
2019-02-15T19:15:22.029Z,102036.17
2019-02-15T19:17:51.784Z,102028.48
2019-02-15T19:20:21.483Z,102032.08
2019-02-15T19:22:51.129Z,102027.44
2019-02-15T19:25:21.031Z,102027.41
2019-02-15T19:27:50.683Z,102027.98
2019-02-15T19:30:22.000Z,102031.58
2019-02-15T19:32:52.198Z,102029.84
2019-02-15T19:35:23.428Z,102028.11
2019-02-15T19:37:54.490Z,102025.73
2019-02-15T19:40:23.966Z,102028.19
2019-02-15T19:42:54.374Z,102023.84
2019-02-15T19:45:24.314Z,102021.44
2019-02-15T19:47:53.980Z,102025.99
2019-02-15T19:50:23.536Z,102016.48
2019-02-15T19:52:53.345Z,102020.80
2019-02-15T19:55:23.117Z,102016.94
2019-02-15T19:57:53.096Z,102013.88
2019-02-15T20:00:22.742Z,102010.69
2019-02-15T20:02:52.404Z,102010.81
2019-02-15T20:05:22.170Z,102010.53
2019-02-15T20:07:51.894Z,102012.34
2019-02-15T20:10:22.199Z,102008.44
2019-02-15T20:12:53.147Z,102007.19
2019-02-15T20:15:22.697Z,102008.59
2019-02-15T20:17:52.397Z,102002.92
2019-02-15T20:20:22.010Z,102008.68
2019-02-15T20:22:51.698Z,102005.57
2019-02-15T20:25:21.653Z,102001.87
2019-02-15T20:27:51.942Z,101995.51
2019-02-15T20:30:21.876Z,101999.01
2019-02-15T20:32:51.636Z,101996.35
2019-02-15T20:35:21.457Z,101998.33
2019-02-15T20:37:52.171Z,101994.13
2019-02-15T20:40:22.283Z,101992.45
2019-02-15T20:42:51.956Z,101995.46
2019-02-15T20:45:22.006Z,101992.40
2019-02-15T20:47:51.705Z,101988.97
2019-02-15T20:50:21.624Z,101987.88
2019-02-15T20:52:51.277Z,101980.47
2019-02-15T20:55:21.005Z,101988.02
2019-02-15T20:57:50.693Z,101988.81
2019-02-15T21:00:22.654Z,101984.67
2019-02-15T21:02:52.451Z,101986.37
2019-02-15T21:05:22.057Z,101989.84
2019-02-15T21:07:53.992Z,101985.50
2019-02-15T21:10:23.676Z,101986.05
2019-02-15T21:12:53.355Z,101988.94
2019-02-15T21:15:24.327Z,101985.54
2019-02-15T21:17:54.076Z,101980.62
2019-02-15T21:20:24.669Z,101982.81
2019-02-15T21:22:54.650Z,101978.90
2019-02-15T21:25:24.641Z,101976.19
2019-02-15T21:27:54.288Z,101982.61
2019-02-15T21:30:23.890Z,101972.20
2019-02-15T21:32:53.476Z,101981.07
2019-02-15T21:35:23.236Z,101972.47
2019-02-15T21:37:52.827Z,101971.03
2019-02-15T21:40:22.563Z,101971.84
2019-02-15T21:42:52.353Z,101975.34
2019-02-15T21:45:22.096Z,101972.47
2019-02-15T21:47:51.813Z,101974.50
2019-02-15T21:50:21.392Z,101977.38
2019-02-15T21:52:51.103Z,101969.47
2019-02-15T21:55:20.794Z,101975.14
2019-02-15T21:57:50.512Z,101978.42
2019-02-15T22:00:20.309Z,101970.05
2019-02-15T22:02:49.870Z,101976.68
2019-02-15T22:05:19.416Z,101975.98
2019-02-15T22:07:48.950Z,101979.13
2019-02-15T22:10:18.522Z,101978.19
2019-02-15T22:12:48.097Z,101973.62
2019-02-15T22:15:17.777Z,101970.95
2019-02-15T22:17:47.270Z,101972.77
2019-02-15T22:20:25.973Z,101977.63
2019-02-15T22:22:48.241Z,101976.88
2019-02-15T22:25:17.447Z,101972.68
2019-02-15T22:27:46.731Z,101972.80
2019-02-15T22:30:16.128Z,101975.38
2019-02-15T22:32:45.576Z,101962.39
2019-02-15T22:35:14.900Z,101973.06
2019-02-15T22:37:44.178Z,101969.38
2019-02-15T22:40:29.943Z,101969.20
2019-02-15T22:43:01.178Z,101961.67
2019-02-15T22:45:30.589Z,101963.48
2019-02-15T22:47:59.817Z,101956.05
2019-02-15T22:50:35.659Z,101960.80
2019-02-15T22:53:00.331Z,101950.03
2019-02-15T22:55:29.536Z,101955.61
2019-02-15T22:57:59.222Z,101949.14
2019-02-15T23:00:53.291Z,101950.14
2019-02-15T23:03:24.511Z,101947.42
2019-02-15T23:05:53.868Z,101949.70
2019-02-15T23:08:23.193Z,101940.36
2019-02-15T23:10:52.528Z,101945.73
2019-02-15T23:13:21.748Z,101947.38
2019-02-15T23:15:51.012Z,101946.80
2019-02-15T23:18:20.490Z,101945.39
2019-02-15T23:20:49.894Z,101935.76
2019-02-15T23:23:19.277Z,101929.06
2019-02-15T23:25:48.471Z,101932.49
2019-02-15T23:28:17.764Z,101925.09
2019-02-15T23:30:46.938Z,101932.59
2019-02-15T23:33:16.316Z,101926.86
2019-02-15T23:35:45.635Z,101935.20
2019-02-15T23:38:14.960Z,101931.97
2019-02-15T23:40:44.193Z,101927.36
2019-02-15T23:43:13.553Z,101933.70
2019-02-15T23:45:44.917Z,101928.91
2019-02-15T23:48:13.841Z,101932.17
2019-02-15T23:50:43.153Z,101929.16
2019-02-15T23:53:12.367Z,101931.36
2019-02-15T23:55:41.559Z,101932.57
2019-02-15T23:58:10.810Z,101926.58
